sensor_id;sensor_type;location;lat;lon;timestamp;pressure;altitude;pressure_sealevel;temperature;humidity
55858;BME280;41779;52.360;31.026;2022-08-04T00:00:51;1021.8;;;25.1;50.5
55858;BME280;41779;52.360;31.026;2022-08-04T00:05:53;1021.8;;;25.1;50.5
55858;BME280;41779;52.360;31.026;2022-08-04T00:10:48;1021.8;;;25.1;50.5
55858;BME280;41779;52.360;31.026;2022-08-04T00:15:46;1021.8;;;25.1;50.5
55858;BME280;41779;52.360;31.026;2022-08-04T00:20:46;1021.8;;;25.1;50.5
55858;BME280;41779;52.360;31.026;2022-08-04T00:25:46;1021.8;;;25.1;50.5
55858;BME280;41779;52.360;31.026;2022-08-04T00:30:46;1021.8;;;25.1;50.5
55858;BME280;41779;52.360;31.026;2022-08-04T00:35:47;1021.8;;;25.1;50.5
55858;BME280;41779;52.360;31.026;2022-08-04T00:40:56;1021.8;;;25.1;50.5
55858;BME280;41779;52.360;31.026;2022-08-04T00:45:54;1021.8;;;25.1;50.5
55858;BME280;41779;52.360;31.026;2022-08-04T00:56:02;1021.8;;;25.1;50.5
55858;BME280;41779;52.360;31.026;2022-08-04T01:01:00;1021.8;;;25.1;50.5
55858;BME280;41779;52.360;31.026;2022-08-04T01:05:51;1021.8;;;25.1;50.5
55858;BME280;41779;52.360;31.026;2022-08-04T01:10:52;1021.8;;;25.1;50.5
55858;BME280;41779;52.360;31.026;2022-08-04T01:16:02;1021.8;;;25.1;50.5
55858;BME280;41779;52.360;31.026;2022-08-04T01:20:54;1021.8;;;25.1;50.5
55858;BME280;41779;52.360;31.026;2022-08-04T01:30:47;1021.8;;;25.1;50.5
55858;BME280;41779;52.360;31.026;2022-08-04T01:35:47;1021.8;;;25.1;50.5
55858;BME280;41779;52.360;31.026;2022-08-04T01:40:46;1021.8;;;25.1;50.5
55858;BME280;41779;52.360;31.026;2022-08-04T01:45:48;1021.8;;;25.1;50.5
55858;BME280;41779;52.360;31.026;2022-08-04T01:50:46;1021.8;;;25.1;50.5
55858;BME280;41779;52.360;31.026;2022-08-04T01:55:47;1021.8;;;25.1;50.5
55858;BME280;41779;52.360;31.026;2022-08-04T02:00:49;1021.8;;;25.1;50.5
55858;BME280;41779;52.360;31.026;2022-08-04T02:05:46;1021.8;;;25.1;50.5
55858;BME280;41779;52.360;31.026;2022-08-04T02:11:19;1021.8;;;25.1;50.5
55858;BME280;41779;52.360;31.026;2022-08-04T02:15:51;1021.8;;;25.1;50.5
55858;BME280;41779;52.360;31.026;2022-08-04T02:20:47;1021.8;;;25.1;50.5
55858;BME280;41779;52.360;31.026;2022-08-04T02:25:47;1021.8;;;25.1;50.5
55858;BME280;41779;52.360;31.026;2022-08-04T02:31:22;1021.8;;;25.1;50.5
55858;BME280;41779;52.360;31.026;2022-08-04T02:35:46;1021.8;;;25.1;50.5
55858;BME280;41779;52.360;31.026;2022-08-04T02:40:46;1021.8;;;25.1;50.5
55858;BME280;41779;52.360;31.026;2022-08-04T02:45:46;1021.8;;;25.1;50.5
55858;BME280;41779;52.360;31.026;2022-08-04T02:50:46;1021.8;;;25.1;50.5
55858;BME280;41779;52.360;31.026;2022-08-04T02:55:46;1021.8;;;25.1;50.5
55858;BME280;41779;52.360;31.026;2022-08-04T03:00:47;1021.8;;;25.1;50.5
55858;BME280;41779;52.360;31.026;2022-08-04T03:05:52;1021.8;;;25.1;50.5
55858;BME280;41779;52.360;31.026;2022-08-04T03:11:04;1021.8;;;25.1;50.5
55858;BME280;41779;52.360;31.026;2022-08-04T03:16:07;1021.8;;;25.1;50.5
55858;BME280;41779;52.360;31.026;2022-08-04T03:22:56;1021.8;;;25.1;50.5
55858;BME280;41779;52.360;31.026;2022-08-04T03:26:51;1021.8;;;25.1;50.5
55858;BME280;41779;52.360;31.026;2022-08-04T03:30:58;1021.8;;;25.1;50.5
55858;BME280;41779;52.360;31.026;2022-08-04T03:46:08;1021.8;;;25.1;50.5
55858;BME280;41779;52.360;31.026;2022-08-04T03:50:57;1021.8;;;25.1;50.5
55858;BME280;41779;52.360;31.026;2022-08-04T03:56:23;1021.8;;;25.1;50.5
55858;BME280;41779;52.360;31.026;2022-08-04T04:01:55;1021.8;;;25.1;50.5
55858;BME280;41779;52.360;31.026;2022-08-04T04:05:54;1021.8;;;25.1;50.5
55858;BME280;41779;52.360;31.026;2022-08-04T04:11:29;1021.8;;;25.1;50.5
55858;BME280;41779;52.360;31.026;2022-08-04T04:25:50;1021.8;;;25.1;50.5
55858;BME280;41779;52.360;31.026;2022-08-04T04:30:51;1021.8;;;25.1;50.5
55858;BME280;41779;52.360;31.026;2022-08-04T04:35:52;1021.8;;;25.1;50.5
55858;BME280;41779;52.360;31.026;2022-08-04T04:40:54;1021.8;;;25.1;50.5
55858;BME280;41779;52.360;31.026;2022-08-04T04:46:02;1021.8;;;25.1;50.5
55858;BME280;41779;52.360;31.026;2022-08-04T04:55:49;1021.8;;;25.1;50.5
55858;BME280;41779;52.360;31.026;2022-08-04T05:01:04;1021.8;;;25.1;50.5
55858;BME280;41779;52.360;31.026;2022-08-04T05:05:52;1021.8;;;25.1;50.5
55858;BME280;41779;52.360;31.026;2022-08-04T05:12:09;1021.8;;;25.1;50.5
55858;BME280;41779;52.360;31.026;2022-08-04T05:15:47;1021.8;;;25.1;50.5
55858;BME280;41779;52.360;31.026;2022-08-04T05:20:47;1021.8;;;25.1;50.5
55858;BME280;41779;52.360;31.026;2022-08-04T05:26:05;1021.8;;;25.1;50.5
55858;BME280;41779;52.360;31.026;2022-08-04T05:30:47;1021.8;;;25.1;50.5
55858;BME280;41779;52.360;31.026;2022-08-04T05:35:48;1021.8;;;25.1;50.5
55858;BME280;41779;52.360;31.026;2022-08-04T05:40:46;1021.8;;;25.1;50.5
55858;BME280;41779;52.360;31.026;2022-08-04T05:45:46;1021.8;;;25.1;50.5
55858;BME280;41779;52.360;31.026;2022-08-04T05:50:46;1021.8;;;25.1;50.5
55858;BME280;41779;52.360;31.026;2022-08-04T05:55:46;1021.8;;;25.1;50.5
55858;BME280;41779;52.360;31.026;2022-08-04T06:00:46;1021.8;;;25.1;50.5
55858;BME280;41779;52.360;31.026;2022-08-04T06:05:46;1021.8;;;25.1;50.5
55858;BME280;41779;52.360;31.026;2022-08-04T06:10:46;1021.8;;;25.1;50.5
55858;BME280;41779;52.360;31.026;2022-08-04T06:15:46;1021.8;;;25.1;50.5
55858;BME280;41779;52.360;31.026;2022-08-04T06:20:46;1021.8;;;25.1;50.5
55858;BME280;41779;52.360;31.026;2022-08-04T06:25:47;1021.8;;;25.1;50.5
55858;BME280;41779;52.360;31.026;2022-08-04T06:30:46;1021.8;;;25.1;50.5
55858;BME280;41779;52.360;31.026;2022-08-04T06:35:46;1021.8;;;25.1;50.5
55858;BME280;41779;52.360;31.026;2022-08-04T06:40:46;1021.8;;;25.1;50.5
55858;BME280;41779;52.360;31.026;2022-08-04T06:45:46;1021.8;;;25.1;50.5
55858;BME280;41779;52.360;31.026;2022-08-04T06:50:47;1021.8;;;25.1;50.5
55858;BME280;41779;52.360;31.026;2022-08-04T06:55:46;1021.8;;;25.1;50.5
55858;BME280;41779;52.360;31.026;2022-08-04T07:00:46;1021.8;;;25.1;50.5
55858;BME280;41779;52.360;31.026;2022-08-04T07:05:46;1021.8;;;25.1;50.5
55858;BME280;41779;52.360;31.026;2022-08-04T07:10:46;1021.8;;;25.1;50.5
55858;BME280;41779;52.360;31.026;2022-08-04T07:15:46;1021.8;;;25.1;50.5
55858;BME280;41779;52.360;31.026;2022-08-04T07:20:46;1021.8;;;25.1;50.5
55858;BME280;41779;52.360;31.026;2022-08-04T07:25:50;1021.8;;;25.1;50.5
55858;BME280;41779;52.360;31.026;2022-08-04T07:30:47;1021.8;;;25.1;50.5
55858;BME280;41779;52.360;31.026;2022-08-04T07:35:50;1021.8;;;25.1;50.5
55858;BME280;41779;52.360;31.026;2022-08-04T07:40:46;1021.8;;;25.1;50.5
55858;BME280;41779;52.360;31.026;2022-08-04T07:45:46;1021.8;;;25.1;50.5
55858;BME280;41779;52.360;31.026;2022-08-04T07:50:46;1021.8;;;25.1;50.5
55858;BME280;41779;52.360;31.026;2022-08-04T07:55:46;1021.8;;;25.1;50.5
55858;BME280;41779;52.360;31.026;2022-08-04T08:00:46;1021.8;;;25.1;50.5
55858;BME280;41779;52.360;31.026;2022-08-04T08:05:46;1021.8;;;25.1;50.5
55858;BME280;41779;52.360;31.026;2022-08-04T08:10:47;1021.8;;;25.1;50.5
55858;BME280;41779;52.360;31.026;2022-08-04T08:15:46;1021.8;;;25.1;50.5
55858;BME280;41779;52.360;31.026;2022-08-04T08:20:46;1021.8;;;25.1;50.5
55858;BME280;41779;52.360;31.026;2022-08-04T08:25:46;1021.8;;;25.1;50.5
55858;BME280;41779;52.360;31.026;2022-08-04T08:30:46;1021.8;;;25.1;50.5
55858;BME280;41779;52.360;31.026;2022-08-04T08:35:49;1021.8;;;25.1;50.5
55858;BME280;41779;52.360;31.026;2022-08-04T08:40:50;1021.8;;;25.1;50.5
55858;BME280;41779;52.360;31.026;2022-08-04T08:56:05;1021.8;;;25.1;50.5
55858;BME280;41779;52.360;31.026;2022-08-04T09:05:51;1021.8;;;25.1;50.5
55858;BME280;41779;52.360;31.026;2022-08-04T09:10:47;1021.8;;;25.1;50.5
55858;BME280;41779;52.360;31.026;2022-08-04T09:15:56;1021.8;;;25.1;50.5
55858;BME280;41779;52.360;31.026;2022-08-04T09:20:47;1021.8;;;25.1;50.5
55858;BME280;41779;52.360;31.026;2022-08-04T09:26:19;1021.8;;;25.1;50.5
55858;BME280;41779;52.360;31.026;2022-08-04T09:30:56;1021.8;;;25.1;50.5
55858;BME280;41779;52.360;31.026;2022-08-04T09:35:47;1021.8;;;25.1;50.5
55858;BME280;41779;52.360;31.026;2022-08-04T09:45:54;1021.8;;;25.1;50.5
55858;BME280;41779;52.360;31.026;2022-08-04T09:50:46;1021.8;;;25.1;50.5
55858;BME280;41779;52.360;31.026;2022-08-04T09:55:51;1021.8;;;25.1;50.5
55858;BME280;41779;52.360;31.026;2022-08-04T10:00:47;1021.8;;;25.1;50.5
55858;BME280;41779;52.360;31.026;2022-08-04T10:05:58;1021.8;;;25.1;50.5
55858;BME280;41779;52.360;31.026;2022-08-04T10:10:50;1021.8;;;25.1;50.5
55858;BME280;41779;52.360;31.026;2022-08-04T10:20:54;1021.8;;;25.1;50.5
55858;BME280;41779;52.360;31.026;2022-08-04T10:26:56;1021.8;;;25.1;50.5
55858;BME280;41779;52.360;31.026;2022-08-04T10:30:48;1021.8;;;25.1;50.5
55858;BME280;41779;52.360;31.026;2022-08-04T10:35:48;1021.8;;;25.1;50.5
55858;BME280;41779;52.360;31.026;2022-08-04T10:40:49;1021.8;;;25.1;50.5
55858;BME280;41779;52.360;31.026;2022-08-04T10:45:48;1021.8;;;25.1;50.5
55858;BME280;41779;52.360;31.026;2022-08-04T10:50:53;1021.8;;;25.1;50.5
55858;BME280;41779;52.360;31.026;2022-08-04T10:55:51;1021.8;;;25.1;50.5
55858;BME280;41779;52.360;31.026;2022-08-04T11:00:46;1021.8;;;25.1;50.5
55858;BME280;41779;52.360;31.026;2022-08-04T11:05:48;1021.8;;;25.1;50.5
55858;BME280;41779;52.360;31.026;2022-08-04T11:10:49;1021.8;;;25.1;50.5
55858;BME280;41779;52.360;31.026;2022-08-04T11:15:50;1021.8;;;25.1;50.5
55858;BME280;41779;52.360;31.026;2022-08-04T11:20:49;1021.8;;;25.1;50.5
55858;BME280;41779;52.360;31.026;2022-08-04T11:26:12;1021.8;;;25.1;50.5
55858;BME280;41779;52.360;31.026;2022-08-04T11:30:50;1021.8;;;25.1;50.5
55858;BME280;41779;52.360;31.026;2022-08-04T11:35:51;1021.8;;;25.1;50.5
55858;BME280;41779;52.360;31.026;2022-08-04T11:40:46;1021.8;;;25.1;50.5
55858;BME280;41779;52.360;31.026;2022-08-04T11:45:50;1021.8;;;25.1;50.5
55858;BME280;41779;52.360;31.026;2022-08-04T11:50:48;1021.8;;;25.1;50.5
55858;BME280;41779;52.360;31.026;2022-08-04T11:55:47;1021.8;;;25.1;50.5
55858;BME280;41779;52.360;31.026;2022-08-04T12:00:51;1021.8;;;25.1;50.5
55858;BME280;41779;52.360;31.026;2022-08-04T12:06:19;1021.8;;;25.1;50.5
55858;BME280;41779;52.360;31.026;2022-08-04T12:11:53;1021.8;;;25.1;50.5
55858;BME280;41779;52.360;31.026;2022-08-04T12:20:47;1021.8;;;25.1;50.5
55858;BME280;41779;52.360;31.026;2022-08-04T12:25:46;1021.8;;;25.1;50.5
55858;BME280;41779;52.360;31.026;2022-08-04T12:30:48;1021.8;;;25.1;50.5
55858;BME280;41779;52.360;31.026;2022-08-04T12:35:50;1021.8;;;25.1;50.5
55858;BME280;41779;52.360;31.026;2022-08-04T12:40:48;1021.8;;;25.1;50.5
55858;BME280;41779;52.360;31.026;2022-08-04T12:45:50;1021.8;;;25.1;50.5
55858;BME280;41779;52.360;31.026;2022-08-04T12:50:48;1021.8;;;25.1;50.5
55858;BME280;41779;52.360;31.026;2022-08-04T12:55:47;1021.8;;;25.1;50.5
55858;BME280;41779;52.360;31.026;2022-08-04T13:00:50;1021.8;;;25.1;50.5
55858;BME280;41779;52.360;31.026;2022-08-04T13:05:46;1021.8;;;25.1;50.5
55858;BME280;41779;52.360;31.026;2022-08-04T13:10:46;1021.8;;;25.1;50.5
55858;BME280;41779;52.360;31.026;2022-08-04T13:15:54;1021.8;;;25.1;50.5
55858;BME280;41779;52.360;31.026;2022-08-04T13:20:46;1021.8;;;25.1;50.5
55858;BME280;41779;52.360;31.026;2022-08-04T13:25:47;1021.8;;;25.1;50.5
55858;BME280;41779;52.360;31.026;2022-08-04T13:35:46;1021.8;;;25.1;50.5
55858;BME280;41779;52.360;31.026;2022-08-04T13:40:46;1021.8;;;25.1;50.5
55858;BME280;41779;52.360;31.026;2022-08-04T13:45:46;1021.8;;;25.1;50.5
55858;BME280;41779;52.360;31.026;2022-08-04T13:50:46;1021.8;;;25.1;50.5
55858;BME280;41779;52.360;31.026;2022-08-04T13:55:46;1021.8;;;25.1;50.5
55858;BME280;41779;52.360;31.026;2022-08-04T14:00:52;1021.8;;;25.1;50.5
55858;BME280;41779;52.360;31.026;2022-08-04T14:05:48;1021.8;;;25.1;50.5
55858;BME280;41779;52.360;31.026;2022-08-04T14:10:54;1021.8;;;25.1;50.5
55858;BME280;41779;52.360;31.026;2022-08-04T14:15:46;1021.8;;;25.1;50.5
55858;BME280;41779;52.360;31.026;2022-08-04T14:21:03;1021.8;;;25.1;50.5
55858;BME280;41779;52.360;31.026;2022-08-04T14:25:46;1021.8;;;25.1;50.5
55858;BME280;41779;52.360;31.026;2022-08-04T14:30:46;1021.8;;;25.1;50.5
55858;BME280;41779;52.360;31.026;2022-08-04T14:35:55;1021.8;;;25.1;50.5
55858;BME280;41779;52.360;31.026;2022-08-04T14:40:46;1021.8;;;25.1;50.5
55858;BME280;41779;52.360;31.026;2022-08-04T14:45:46;1021.8;;;25.1;50.5
55858;BME280;41779;52.360;31.026;2022-08-04T14:50:47;1021.8;;;25.1;50.5
55858;BME280;41779;52.360;31.026;2022-08-04T14:55:47;1021.8;;;25.1;50.5
55858;BME280;41779;52.360;31.026;2022-08-04T15:00:46;1021.8;;;25.1;50.5
55858;BME280;41779;52.360;31.026;2022-08-04T15:05:46;1021.8;;;25.1;50.5
55858;BME280;41779;52.360;31.026;2022-08-04T15:10:46;1021.8;;;25.1;50.5
55858;BME280;41779;52.360;31.026;2022-08-04T15:15:46;1021.8;;;25.1;50.5
55858;BME280;41779;52.360;31.026;2022-08-04T15:20:46;1021.8;;;25.1;50.5
55858;BME280;41779;52.360;31.026;2022-08-04T15:25:47;1021.8;;;25.1;50.5
55858;BME280;41779;52.360;31.026;2022-08-04T15:30:46;1021.8;;;25.1;50.5
55858;BME280;41779;52.360;31.026;2022-08-04T15:35:46;1021.8;;;25.1;50.5
55858;BME280;41779;52.360;31.026;2022-08-04T15:40:47;1021.8;;;25.1;50.5
55858;BME280;41779;52.360;31.026;2022-08-04T15:45:54;1021.8;;;25.1;50.5
55858;BME280;41779;52.360;31.026;2022-08-04T15:51:03;1021.8;;;25.1;50.5
55858;BME280;41779;52.360;31.026;2022-08-04T15:55:46;1021.8;;;25.1;50.5
55858;BME280;41779;52.360;31.026;2022-08-04T16:05:46;1021.8;;;25.1;50.5
55858;BME280;41779;52.360;31.026;2022-08-04T16:10:47;1021.8;;;25.1;50.5
55858;BME280;41779;52.360;31.026;2022-08-04T16:15:47;1021.8;;;25.1;50.5
55858;BME280;41779;52.360;31.026;2022-08-04T16:20:46;1021.8;;;25.1;50.5
55858;BME280;41779;52.360;31.026;2022-08-04T16:25:46;1021.8;;;25.1;50.5
55858;BME280;41779;52.360;31.026;2022-08-04T16:30:46;1021.8;;;25.1;50.5
55858;BME280;41779;52.360;31.026;2022-08-04T16:35:46;1021.8;;;25.1;50.5
55858;BME280;41779;52.360;31.026;2022-08-04T16:41:01;1021.8;;;25.1;50.5
55858;BME280;41779;52.360;31.026;2022-08-04T16:45:54;1021.8;;;25.1;50.5
55858;BME280;41779;52.360;31.026;2022-08-04T16:50:48;1021.8;;;25.1;50.5
55858;BME280;41779;52.360;31.026;2022-08-04T16:55:47;1021.8;;;25.1;50.5
55858;BME280;41779;52.360;31.026;2022-08-04T17:00:46;1021.8;;;25.1;50.5
55858;BME280;41779;52.360;31.026;2022-08-04T17:05:46;1021.8;;;25.1;50.5
55858;BME280;41779;52.360;31.026;2022-08-04T17:10:46;1021.8;;;25.1;50.5
55858;BME280;41779;52.360;31.026;2022-08-04T17:15:47;1021.8;;;25.1;50.5
55858;BME280;41779;52.360;31.026;2022-08-04T17:20:46;1021.8;;;25.1;50.5
55858;BME280;41779;52.360;31.026;2022-08-04T17:25:50;1021.8;;;25.1;50.5
55858;BME280;41779;52.360;31.026;2022-08-04T17:30:47;1021.8;;;25.1;50.5
55858;BME280;41779;52.360;31.026;2022-08-04T17:35:46;1021.8;;;25.1;50.5
55858;BME280;41779;52.360;31.026;2022-08-04T17:41:03;1021.8;;;25.1;50.5
55858;BME280;41779;52.360;31.026;2022-08-04T17:45:46;1021.8;;;25.1;50.5
55858;BME280;41779;52.360;31.026;2022-08-04T17:50:46;1021.8;;;25.1;50.5
55858;BME280;41779;52.360;31.026;2022-08-04T17:55:46;1021.8;;;25.1;50.5
55858;BME280;41779;52.360;31.026;2022-08-04T18:00:46;1021.8;;;25.1;50.5
55858;BME280;41779;52.360;31.026;2022-08-04T18:05:46;1021.8;;;25.1;50.5
55858;BME280;41779;52.360;31.026;2022-08-04T18:10:46;1021.8;;;25.1;50.5
55858;BME280;41779;52.360;31.026;2022-08-04T18:15:46;1021.8;;;25.1;50.5
55858;BME280;41779;52.360;31.026;2022-08-04T18:20:46;1021.8;;;25.1;50.5
55858;BME280;41779;52.360;31.026;2022-08-04T18:25:46;1021.8;;;25.1;50.5
55858;BME280;41779;52.360;31.026;2022-08-04T18:30:46;1021.8;;;25.1;50.5
55858;BME280;41779;52.360;31.026;2022-08-04T18:35:46;1021.8;;;25.1;50.5
55858;BME280;41779;52.360;31.026;2022-08-04T18:40:46;1021.8;;;25.1;50.5
55858;BME280;41779;52.360;31.026;2022-08-04T18:45:47;1021.8;;;25.1;50.5
55858;BME280;41779;52.360;31.026;2022-08-04T18:50:46;1021.8;;;25.1;50.5
55858;BME280;41779;52.360;31.026;2022-08-04T18:55:46;1021.8;;;25.1;50.5
55858;BME280;41779;52.360;31.026;2022-08-04T19:00:46;1021.8;;;25.1;50.5
55858;BME280;41779;52.360;31.026;2022-08-04T19:05:46;1021.8;;;25.1;50.5
55858;BME280;41779;52.360;31.026;2022-08-04T19:10:46;1021.8;;;25.1;50.5
55858;BME280;41779;52.360;31.026;2022-08-04T19:15:46;1021.8;;;25.1;50.5
55858;BME280;41779;52.360;31.026;2022-08-04T19:20:46;1021.8;;;25.1;50.5
55858;BME280;41779;52.360;31.026;2022-08-04T19:25:46;1021.8;;;25.1;50.5
55858;BME280;41779;52.360;31.026;2022-08-04T19:30:46;1021.8;;;25.1;50.5
55858;BME280;41779;52.360;31.026;2022-08-04T19:35:46;1021.8;;;25.1;50.5
55858;BME280;41779;52.360;31.026;2022-08-04T19:40:46;1021.8;;;25.1;50.5
55858;BME280;41779;52.360;31.026;2022-08-04T19:45:46;1021.8;;;25.1;50.5
55858;BME280;41779;52.360;31.026;2022-08-04T19:50:46;1021.8;;;25.1;50.5
55858;BME280;41779;52.360;31.026;2022-08-04T19:55:47;1021.8;;;25.1;50.5
55858;BME280;41779;52.360;31.026;2022-08-04T20:00:46;1021.8;;;25.1;50.5
55858;BME280;41779;52.360;31.026;2022-08-04T20:05:46;1021.8;;;25.1;50.5
55858;BME280;41779;52.360;31.026;2022-08-04T20:10:46;1021.8;;;25.1;50.5
55858;BME280;41779;52.360;31.026;2022-08-04T20:15:46;1021.8;;;25.1;50.5
55858;BME280;41779;52.360;31.026;2022-08-04T20:20:46;1021.8;;;25.1;50.5
55858;BME280;41779;52.360;31.026;2022-08-04T20:25:46;1021.8;;;25.1;50.5
55858;BME280;41779;52.360;31.026;2022-08-04T20:30:46;1021.8;;;25.1;50.5
55858;BME280;41779;52.360;31.026;2022-08-04T20:35:46;1021.8;;;25.1;50.5
55858;BME280;41779;52.360;31.026;2022-08-04T20:40:46;1021.8;;;25.1;50.5
55858;BME280;41779;52.360;31.026;2022-08-04T20:45:46;1021.8;;;25.1;50.5
55858;BME280;41779;52.360;31.026;2022-08-04T20:50:46;1021.8;;;25.1;50.5
55858;BME280;41779;52.360;31.026;2022-08-04T20:55:46;1021.8;;;25.1;50.5
55858;BME280;41779;52.360;31.026;2022-08-04T21:00:46;1021.8;;;25.1;50.5
55858;BME280;41779;52.360;31.026;2022-08-04T21:05:46;1021.8;;;25.1;50.5
55858;BME280;41779;52.360;31.026;2022-08-04T21:10:46;1021.8;;;25.1;50.5
55858;BME280;41779;52.360;31.026;2022-08-04T21:15:46;1021.8;;;25.1;50.5
55858;BME280;41779;52.360;31.026;2022-08-04T21:20:46;1021.8;;;25.1;50.5
55858;BME280;41779;52.360;31.026;2022-08-04T21:25:53;1021.8;;;25.1;50.5
55858;BME280;41779;52.360;31.026;2022-08-04T21:30:46;1026.8;;;22.4;74.6
55858;BME280;41779;52.360;31.026;2022-08-04T21:35:46;1026.8;;;22.7;75.5
55858;BME280;41779;52.360;31.026;2022-08-04T21:40:50;1026.8;;;23.4;73.2
55858;BME280;41779;52.360;31.026;2022-08-04T21:45:46;1026.7;;;24;70.3
55858;BME280;41779;52.360;31.026;2022-08-04T21:50:46;1026.7;;;24.5;68
55858;BME280;41779;52.360;31.026;2022-08-04T21:55:47;1026.7;;;24.8;66.5
55858;BME280;41779;52.360;31.026;2022-08-04T22:00:46;1026.7;;;25;65.3
55858;BME280;41779;52.360;31.026;2022-08-04T22:05:46;1026.8;;;25.1;65.5
55858;BME280;41779;52.360;31.026;2022-08-04T22:10:46;1026.8;;;25;66
55858;BME280;41779;52.360;31.026;2022-08-04T22:15:46;1026.8;;;24.8;66.2
55858;BME280;41779;52.360;31.026;2022-08-04T22:20:46;1026.7;;;24.7;66.3
55858;BME280;41779;52.360;31.026;2022-08-04T22:25:46;1026.9;;;24.8;66
55858;BME280;41779;52.360;31.026;2022-08-04T22:30:46;1026.9;;;24.8;65.8
55858;BME280;41779;52.360;31.026;2022-08-04T22:35:46;1026.8;;;24.8;65.5
55858;BME280;41779;52.360;31.026;2022-08-04T22:40:46;1026.8;;;24.8;65
55858;BME280;41779;52.360;31.026;2022-08-04T22:45:46;1026.8;;;24.7;65.4
55858;BME280;41779;52.360;31.026;2022-08-04T22:50:46;1026.8;;;24.4;66
55858;BME280;41779;52.360;31.026;2022-08-04T22:55:46;1026.8;;;24.4;66.2
55858;BME280;41779;52.360;31.026;2022-08-04T23:00:46;1026.8;;;24.6;65.5
55858;BME280;41779;52.360;31.026;2022-08-04T23:05:46;1026.8;;;24.8;64.7
55858;BME280;41779;52.360;31.026;2022-08-04T23:10:46;1026.8;;;24.9;64.1
55858;BME280;41779;52.360;31.026;2022-08-04T23:15:46;1026.7;;;24.9;63.8
55858;BME280;41779;52.360;31.026;2022-08-04T23:20:46;1026.7;;;24.9;63.7
55858;BME280;41779;52.360;31.026;2022-08-04T23:25:46;1026.7;;;25;63.8
55858;BME280;41779;52.360;31.026;2022-08-04T23:30:46;1026.6;;;25;63.4
55858;BME280;41779;52.360;31.026;2022-08-04T23:35:46;1026.7;;;25.1;63
55858;BME280;41779;52.360;31.026;2022-08-04T23:40:46;1026.6;;;25.1;62.4
55858;BME280;41779;52.360;31.026;2022-08-04T23:45:47;1026.5;;;25.1;61.9
55858;BME280;41779;52.360;31.026;2022-08-04T23:50:46;1026.5;;;25.1;61.7
55858;BME280;41779;52.360;31.026;2022-08-04T23:55:46;1026.5;;;25.1;61.4
